Samara, Russia
Current Conditions -  °F | °C
As of 9:30 AM on Friday 28 Nov 2014 (Local Time) from UWWW Reporting Station
Light Snow Light Snow  
Wind Chill: 18°   Ceiling: 600
Heat Index: 18°   Visibility: 1.8mi
Dew Point: 12°   Wind: 2mph
Humidity: 79%   Direction: 260°W
Pressure: 30.62"   Gusts: NA
Location:  53.2°N, 50.15°E
Report Text: UWWW 280530Z 26001MPS 2900 -SN BR OVC006 M08/M11 Q1037 0542034715//99// NOSIG RMK QFE764/1019
Loading
Personal Weather Stations






























Interactive Weather Map New forecast layout! Learn more

10-Day Weather Forecast

Advertisements
Track Severe Weather on mobile